createdAt,value
2017-12-11T00:00:11.788Z,0.70
2017-12-11T00:02:40.116Z,0.63
2017-12-11T00:05:09.328Z,0.60
2017-12-11T00:07:37.254Z,0.63
2017-12-11T00:10:06.073Z,0.60
2017-12-11T00:12:35.733Z,0.77
2017-12-11T00:15:03.254Z,0.70
2017-12-11T00:17:31.550Z,0.60
2017-12-11T00:19:59.836Z,0.60
2017-12-11T00:22:39.973Z,0.70
2017-12-11T00:25:07.952Z,0.73
2017-12-11T00:27:35.886Z,0.70
2017-12-11T00:30:04.168Z,0.60
2017-12-11T00:32:32.484Z,0.80
2017-12-11T00:35:00.965Z,0.60
2017-12-11T00:37:29.252Z,0.70
2017-12-11T00:39:57.531Z,0.60
2017-12-11T00:42:25.864Z,0.60
2017-12-11T00:44:54.155Z,0.70
2017-12-11T00:47:22.451Z,0.70
2017-12-11T00:49:49.961Z,0.60
2017-12-11T00:52:17.894Z,0.60
2017-12-11T00:54:46.182Z,0.70
2017-12-11T00:57:14.469Z,0.70
2017-12-11T00:59:42.766Z,0.60
2017-12-11T01:02:11.051Z,0.70
2017-12-11T01:04:38.577Z,0.70
2017-12-11T01:07:06.620Z,0.60
2017-12-11T01:09:34.954Z,0.50
2017-12-11T01:12:03.981Z,0.50
2017-12-11T01:14:31.512Z,0.60
2017-12-11T01:16:59.781Z,0.60
2017-12-11T01:19:28.075Z,0.60
2017-12-11T01:21:56.493Z,0.60
2017-12-11T01:24:24.026Z,0.63
2017-12-11T01:26:51.956Z,0.60
2017-12-11T01:29:20.259Z,0.60
2017-12-11T01:31:48.546Z,0.60
2017-12-11T01:34:16.848Z,0.70
2017-12-11T01:36:45.131Z,0.70
2017-12-11T01:39:13.434Z,0.80
2017-12-11T01:41:41.721Z,0.60
2017-12-11T01:44:09.254Z,0.80
2017-12-11T01:46:37.167Z,0.60
2017-12-11T01:49:05.457Z,0.70
2017-12-11T01:51:34.361Z,0.70
2017-12-11T01:54:02.282Z,0.60
2017-12-11T01:56:30.566Z,0.60
2017-12-11T01:58:58.869Z,0.70
2017-12-11T02:01:27.959Z,0.60
2017-12-11T02:03:55.568Z,0.70
2017-12-11T02:06:23.880Z,0.60
2017-12-11T02:08:52.910Z,0.60
2017-12-11T02:11:20.464Z,0.70
2017-12-11T02:13:48.950Z,0.57
2017-12-11T02:16:17.256Z,0.60
2017-12-11T02:18:45.550Z,0.57
2017-12-11T02:21:13.845Z,0.70
2017-12-11T02:23:42.126Z,0.87
2017-12-11T02:26:10.427Z,1.13
2017-12-11T02:28:38.471Z,0.70
2017-12-11T02:31:06.004Z,0.60
2017-12-11T02:33:34.420Z,0.60
2017-12-11T02:36:02.721Z,0.60
2017-12-11T02:38:31.060Z,0.90
2017-12-11T02:40:59.365Z,0.70
2017-12-11T02:43:27.649Z,0.77
2017-12-11T02:45:56.152Z,0.80
2017-12-11T02:48:24.427Z,0.80
2017-12-11T02:50:52.735Z,0.80
2017-12-11T02:53:21.031Z,0.70
2017-12-11T02:55:49.334Z,0.77
2017-12-11T02:58:17.613Z,0.70
2017-12-11T03:00:45.910Z,0.80
2017-12-11T03:03:14.178Z,0.90
2017-12-11T03:05:42.503Z,0.90
2017-12-11T03:08:10.034Z,0.83
2017-12-11T03:10:37.955Z,0.83
2017-12-11T03:13:06.261Z,1.10
2017-12-11T03:15:34.545Z,1.10
2017-12-11T03:18:02.843Z,1.20
2017-12-11T03:20:31.135Z,1.13
2017-12-11T03:22:58.665Z,1.63
2017-12-11T03:25:26.589Z,1.40
2017-12-11T03:27:54.883Z,1.20
2017-12-11T03:30:23.169Z,1.10
2017-12-11T03:32:51.466Z,1.30
2017-12-11T03:35:18.977Z,1.00
2017-12-11T03:37:46.919Z,0.93
2017-12-11T03:40:15.195Z,0.87
2017-12-11T03:42:43.595Z,1.00
2017-12-11T03:45:11.957Z,1.27
2017-12-11T03:47:40.281Z,0.80
2017-12-11T03:50:08.568Z,1.20
2017-12-11T03:52:37.004Z,1.30
2017-12-11T03:55:05.335Z,1.10
2017-12-11T03:57:34.390Z,1.40
2017-12-11T04:00:02.299Z,1.10
2017-12-11T04:02:30.231Z,1.27
2017-12-11T04:04:59.021Z,1.50
2017-12-11T04:07:26.947Z,1.30
2017-12-11T04:09:55.223Z,1.63
2017-12-11T04:12:22.762Z,1.40
2017-12-11T04:14:50.689Z,1.63
2017-12-11T04:17:18.995Z,1.20
2017-12-11T04:19:47.277Z,1.27
2017-12-11T04:22:14.814Z,1.20
2017-12-11T04:24:42.734Z,1.17
2017-12-11T04:27:11.914Z,1.30
2017-12-11T04:29:39.446Z,1.47
2017-12-11T04:32:07.729Z,1.10
2017-12-11T04:34:37.022Z,1.13
2017-12-11T04:37:04.517Z,1.03
2017-12-11T04:39:32.814Z,1.20
2017-12-11T04:42:01.100Z,1.40
2017-12-11T04:44:30.328Z,1.13
2017-12-11T04:46:57.838Z,1.53
2017-12-11T04:49:26.134Z,2.27
2017-12-11T04:51:54.425Z,3.27
2017-12-11T04:54:22.732Z,2.80
2017-12-11T04:56:51.014Z,3.67
2017-12-11T04:59:18.598Z,3.07
2017-12-11T05:01:46.555Z,2.93
2017-12-11T05:04:15.854Z,3.37
2017-12-11T05:06:43.373Z,2.60
2017-12-11T05:09:11.294Z,2.70
2017-12-11T05:11:38.809Z,3.53
2017-12-11T05:14:06.742Z,3.23
2017-12-11T05:16:35.032Z,2.50
2017-12-11T05:19:03.448Z,2.50
2017-12-11T05:21:31.720Z,2.70
2017-12-11T05:24:00.022Z,2.80
2017-12-11T05:26:28.308Z,3.80
2017-12-11T05:28:56.602Z,2.90
2017-12-11T05:31:25.027Z,2.87
2017-12-11T05:33:53.335Z,3.20
2017-12-11T05:36:21.625Z,3.10
2017-12-11T05:38:49.157Z,2.70
2017-12-11T05:41:17.074Z,3.07
2017-12-11T05:43:45.385Z,3.10
2017-12-11T05:46:13.692Z,2.67
2017-12-11T05:48:41.973Z,2.90
2017-12-11T05:51:09.509Z,3.13
2017-12-11T05:53:38.157Z,3.50
2017-12-11T05:56:05.702Z,2.97
2017-12-11T05:58:34.048Z,3.47
2017-12-11T06:01:02.712Z,3.07
2017-12-11T06:03:30.621Z,3.33
2017-12-11T06:05:58.154Z,3.50
2017-12-11T06:08:27.594Z,3.20
2017-12-11T06:10:55.890Z,3.87
2017-12-11T06:13:24.170Z,3.73
2017-12-11T06:15:52.580Z,3.40
2017-12-11T06:18:20.861Z,3.43
2017-12-11T06:20:49.166Z,3.60
2017-12-11T06:23:17.458Z,3.20
2017-12-11T06:25:45.999Z,3.50
2017-12-11T06:28:14.291Z,3.93
2017-12-11T06:30:42.597Z,3.80
2017-12-11T06:33:10.877Z,3.53
2017-12-11T06:35:40.022Z,3.33
2017-12-11T06:38:08.357Z,3.17
2017-12-11T06:40:35.898Z,3.10
2017-12-11T06:43:05.043Z,4.10
2017-12-11T06:45:32.585Z,3.77
2017-12-11T06:48:01.138Z,3.07
2017-12-11T06:50:30.191Z,4.00
2017-12-11T06:52:58.034Z,4.37
2017-12-11T06:55:25.962Z,3.83
2017-12-11T06:57:54.269Z,4.40
2017-12-11T07:00:22.706Z,4.40
2017-12-11T07:02:50.994Z,4.67
2017-12-11T07:05:20.082Z,4.23
2017-12-11T07:07:47.611Z,5.53
2017-12-11T07:10:15.930Z,4.80
2017-12-11T07:12:44.290Z,5.93
2017-12-11T07:15:12.222Z,4.90
2017-12-11T07:17:39.766Z,5.17
2017-12-11T07:20:08.060Z,5.20
2017-12-11T07:22:36.354Z,4.70
2017-12-11T07:25:04.752Z,5.03
2017-12-11T07:27:33.067Z,5.50
2017-12-11T07:30:01.412Z,5.47
2017-12-11T07:32:29.735Z,5.20
2017-12-11T07:34:58.759Z,5.10
2017-12-11T07:37:26.683Z,4.93
2017-12-11T07:39:54.828Z,4.50
2017-12-11T07:42:23.124Z,4.87
2017-12-11T07:44:51.413Z,4.20
2017-12-11T07:47:19.714Z,4.70
2017-12-11T07:49:48.048Z,4.80
2017-12-11T07:52:17.227Z,4.40
2017-12-11T07:54:44.746Z,4.80
2017-12-11T07:57:13.779Z,3.27
2017-12-11T07:59:41.699Z,3.63
2017-12-11T08:02:09.990Z,3.57
2017-12-11T08:04:38.641Z,3.80
2017-12-11T08:07:06.574Z,6.20
2017-12-11T08:09:34.858Z,6.23
2017-12-11T08:12:03.159Z,6.70
2017-12-11T08:14:31.527Z,6.80
2017-12-11T08:16:59.842Z,5.63
2017-12-11T08:19:28.861Z,4.80
2017-12-11T08:21:57.246Z,4.80
2017-12-11T08:24:24.945Z,4.60
2017-12-11T08:26:53.229Z,4.73
2017-12-11T08:29:22.262Z,4.83
2017-12-11T08:31:50.697Z,4.30
2017-12-11T08:34:18.363Z,5.03
2017-12-11T08:36:46.650Z,6.00
2017-12-11T08:39:14.941Z,6.90
2017-12-11T08:41:43.230Z,9.23
2017-12-11T08:44:11.541Z,7.83
2017-12-11T08:46:39.830Z,8.73
2017-12-11T08:49:08.139Z,10.60
2017-12-11T08:51:36.930Z,10.40
2017-12-11T08:54:04.867Z,11.07
2017-12-11T08:56:32.443Z,12.33
2017-12-11T08:59:01.559Z,11.53
2017-12-11T09:01:30.126Z,11.93
2017-12-11T09:03:59.667Z,11.50
2017-12-11T09:06:27.958Z,10.73
2017-12-11T09:08:57.538Z,9.37
2017-12-11T09:11:25.824Z,8.50
2017-12-11T09:13:53.353Z,7.43
2017-12-11T09:16:21.575Z,5.60
2017-12-11T09:18:49.887Z,4.43
2017-12-11T09:21:18.179Z,3.67
2017-12-11T09:23:46.488Z,3.27
2017-12-11T09:26:14.761Z,1.90
2017-12-11T09:28:43.065Z,2.53
2017-12-11T09:31:11.945Z,2.40
2017-12-11T09:33:41.138Z,1.93
2017-12-11T09:36:09.417Z,1.63
2017-12-11T09:38:36.958Z,2.00
2017-12-11T09:41:05.145Z,1.90
2017-12-11T09:43:33.906Z,2.10
2017-12-11T09:46:03.668Z,1.97
2017-12-11T09:48:31.203Z,1.97
2017-12-11T09:50:59.906Z,1.90
2017-12-11T09:53:27.840Z,1.70
2017-12-11T09:55:56.865Z,1.70
2017-12-11T09:58:24.915Z,1.60
2017-12-11T10:00:53.581Z,1.43
2017-12-11T10:03:21.161Z,1.63
2017-12-11T10:05:48.679Z,1.93
2017-12-11T10:08:16.598Z,1.73
2017-12-11T10:10:44.890Z,1.73
2017-12-11T10:13:13.177Z,1.80
2017-12-11T10:15:41.483Z,1.63
2017-12-11T10:18:09.763Z,1.70
2017-12-11T10:20:38.056Z,1.47
2017-12-11T10:23:05.651Z,1.80
2017-12-11T10:25:33.567Z,1.70
2017-12-11T10:28:02.378Z,1.80
2017-12-11T10:30:31.235Z,1.90
2017-12-11T10:32:58.806Z,2.43
2017-12-11T10:35:26.351Z,3.63
2017-12-11T10:37:54.260Z,3.80
2017-12-11T10:40:22.565Z,4.40
2017-12-11T10:42:51.591Z,3.77
2017-12-11T10:45:20.122Z,3.20
2017-12-11T10:47:47.670Z,3.50
2017-12-11T10:50:15.981Z,2.67
2017-12-11T10:52:44.281Z,3.43
2017-12-11T10:55:12.626Z,2.60
2017-12-11T10:57:41.041Z,2.73
2017-12-11T11:00:08.974Z,2.10
2017-12-11T11:02:37.517Z,2.47
2017-12-11T11:05:05.805Z,3.43
2017-12-11T11:07:34.095Z,2.43
2017-12-11T11:10:03.193Z,2.90
2017-12-11T11:12:30.712Z,2.80
2017-12-11T11:15:00.119Z,2.17
2017-12-11T11:17:27.666Z,2.03
2017-12-11T11:19:56.934Z,2.13
2017-12-11T11:22:24.473Z,3.30
2017-12-11T11:24:52.394Z,4.33
2017-12-11T11:27:21.446Z,2.50
2017-12-11T11:29:48.965Z,1.93
2017-12-11T11:32:17.278Z,1.93
2017-12-11T11:34:44.815Z,3.20
2017-12-11T11:37:12.754Z,2.10
2017-12-11T11:39:41.055Z,2.30
2017-12-11T11:42:09.357Z,1.63
2017-12-11T11:44:37.817Z,2.27
2017-12-11T11:47:06.131Z,2.87
2017-12-11T11:49:34.426Z,2.47
2017-12-11T11:52:02.778Z,1.87
2017-12-11T11:54:32.525Z,1.87
2017-12-11T11:57:00.862Z,1.90
2017-12-11T11:59:29.191Z,2.00
2017-12-11T12:01:57.500Z,2.90
2017-12-11T12:04:25.974Z,3.67
2017-12-11T12:06:54.272Z,2.90
2017-12-11T12:09:22.760Z,3.37
2017-12-11T12:11:51.063Z,3.43
2017-12-11T12:14:19.360Z,2.23
2017-12-11T12:16:47.707Z,2.23
2017-12-11T12:19:15.986Z,2.13
2017-12-11T12:21:44.293Z,2.30
2017-12-11T12:24:12.579Z,2.97
2017-12-11T12:26:41.031Z,2.23
2017-12-11T12:29:09.315Z,2.43
2017-12-11T12:31:37.622Z,2.73
2017-12-11T12:34:05.898Z,2.40
2017-12-11T12:36:34.245Z,2.30
2017-12-11T12:39:02.529Z,4.73
2017-12-11T12:41:30.171Z,3.80
2017-12-11T12:43:58.098Z,3.40
2017-12-11T12:46:26.590Z,4.00
2017-12-11T12:48:54.527Z,3.03
2017-12-11T12:51:22.891Z,3.33
2017-12-11T12:53:51.536Z,8.50
2017-12-11T12:56:19.450Z,4.30
2017-12-11T12:58:46.982Z,3.67
2017-12-11T13:01:14.898Z,2.83
2017-12-11T13:03:43.429Z,3.23
2017-12-11T13:06:11.716Z,4.90
2017-12-11T13:08:40.073Z,4.63
2017-12-11T13:11:08.341Z,4.23
2017-12-11T13:13:36.654Z,4.00
2017-12-11T13:16:04.939Z,3.00
2017-12-11T13:18:33.255Z,3.10
2017-12-11T13:21:01.737Z,3.33
2017-12-11T13:23:30.076Z,4.33
2017-12-11T13:25:59.361Z,4.27
2017-12-11T13:28:27.187Z,5.57
2017-12-11T13:30:55.106Z,4.40
2017-12-11T13:33:23.952Z,3.93
2017-12-11T13:35:51.639Z,3.37
2017-12-11T13:38:19.990Z,3.70
2017-12-11T13:40:49.013Z,4.03
2017-12-11T13:43:18.747Z,4.30
2017-12-11T13:45:46.293Z,4.20
2017-12-11T13:48:14.758Z,4.00
2017-12-11T13:50:43.051Z,4.00
2017-12-11T13:53:12.094Z,4.83
2017-12-11T13:55:39.638Z,4.13
2017-12-11T13:58:08.980Z,4.20
2017-12-11T14:00:37.437Z,3.90
2017-12-11T14:03:04.960Z,3.73
2017-12-11T14:05:33.265Z,4.40
2017-12-11T14:08:01.553Z,3.73
2017-12-11T14:10:29.916Z,4.90
2017-12-11T14:12:58.197Z,4.47
2017-12-11T14:15:26.507Z,4.40
2017-12-11T14:17:55.918Z,3.77
2017-12-11T14:20:23.464Z,4.50
2017-12-11T14:22:51.403Z,4.50
2017-12-11T14:25:19.717Z,4.07
2017-12-11T14:27:48.013Z,4.23
2017-12-11T14:30:16.308Z,4.20
2017-12-11T14:32:44.593Z,4.60
2017-12-11T14:35:12.138Z,4.13
2017-12-11T14:37:39.646Z,4.67
2017-12-11T14:40:07.610Z,4.57
2017-12-11T14:42:37.661Z,5.20
2017-12-11T14:45:05.962Z,4.80
2017-12-11T14:47:33.881Z,6.17
2017-12-11T14:50:02.330Z,6.40
2017-12-11T14:52:30.622Z,6.33
2017-12-11T14:54:58.159Z,9.33
2017-12-11T14:57:26.074Z,16.70
2017-12-11T14:59:54.392Z,15.93
2017-12-11T15:02:22.665Z,6.37
2017-12-11T15:04:51.113Z,8.13
2017-12-11T15:07:19.463Z,9.70
2017-12-11T15:09:47.780Z,6.40
2017-12-11T15:12:16.066Z,5.70
2017-12-11T15:14:45.839Z,6.30
2017-12-11T15:17:14.453Z,5.57
2017-12-11T15:19:42.797Z,4.90
2017-12-11T15:22:12.208Z,4.30
2017-12-11T15:24:40.519Z,4.43
2017-12-11T15:27:08.567Z,4.77
2017-12-11T15:29:37.028Z,4.40
2017-12-11T15:32:04.558Z,5.33
2017-12-11T15:34:32.867Z,4.93
2017-12-11T15:37:01.971Z,5.30
2017-12-11T15:39:30.249Z,5.17
2017-12-11T15:41:57.783Z,4.90
2017-12-11T15:44:26.066Z,5.43
2017-12-11T15:46:54.914Z,6.17
2017-12-11T15:49:22.860Z,4.87
2017-12-11T15:51:51.160Z,4.50
2017-12-11T15:54:20.230Z,5.47
2017-12-11T15:56:47.763Z,4.17
2017-12-11T15:59:16.661Z,4.00
2017-12-11T16:01:44.604Z,3.87
2017-12-11T16:04:12.881Z,3.80
2017-12-11T16:06:42.266Z,5.73
2017-12-11T16:09:13.134Z,5.27
2017-12-11T16:11:40.691Z,5.50
2017-12-11T16:14:08.992Z,5.27
2017-12-11T16:16:38.134Z,5.70
2017-12-11T16:19:05.718Z,6.27
2017-12-11T16:21:34.795Z,11.00
2017-12-11T16:24:04.127Z,14.40
2017-12-11T16:26:33.354Z,9.17
2017-12-11T16:29:01.655Z,7.03
2017-12-11T16:31:29.977Z,6.60
2017-12-11T16:33:58.280Z,6.90
2017-12-11T16:36:26.583Z,6.80
2017-12-11T16:38:54.915Z,5.50
2017-12-11T16:41:23.210Z,5.73
2017-12-11T16:43:50.735Z,5.37
2017-12-11T16:46:19.586Z,5.77
2017-12-11T16:48:47.499Z,8.33
2017-12-11T16:51:15.417Z,9.10
2017-12-11T16:53:43.743Z,9.13
2017-12-11T16:56:12.023Z,7.37
2017-12-11T16:58:40.346Z,6.23
2017-12-11T17:01:08.895Z,6.07
2017-12-11T17:03:37.221Z,5.63
2017-12-11T17:06:06.806Z,4.37
2017-12-11T17:08:35.886Z,5.40
2017-12-11T17:11:03.644Z,5.30
2017-12-11T17:13:31.959Z,5.97
2017-12-11T17:16:00.281Z,7.37
2017-12-11T17:18:28.608Z,6.93
2017-12-11T17:20:56.897Z,6.60
2017-12-11T17:23:25.204Z,5.67
2017-12-11T17:25:53.700Z,5.80
2017-12-11T17:28:22.921Z,4.90
2017-12-11T17:30:51.986Z,5.20
2017-12-11T17:33:19.926Z,4.07
2017-12-11T17:35:48.225Z,4.27
2017-12-11T17:38:16.774Z,4.07
2017-12-11T17:40:45.062Z,3.47
2017-12-11T17:43:13.362Z,3.47
2017-12-11T17:45:41.699Z,4.60
2017-12-11T17:48:10.090Z,4.10
2017-12-11T17:50:38.374Z,4.20
2017-12-11T17:53:06.677Z,3.73
2017-12-11T17:55:34.953Z,3.87
2017-12-11T17:58:03.253Z,3.70
2017-12-11T18:00:31.550Z,3.57
2017-12-11T18:02:59.886Z,3.30
2017-12-11T18:05:28.324Z,2.87
2017-12-11T18:07:56.614Z,2.83
2017-12-11T18:10:24.991Z,2.20
2017-12-11T18:12:53.438Z,2.37
2017-12-11T18:15:21.718Z,3.00
2017-12-11T18:17:50.335Z,2.50
2017-12-11T18:20:18.251Z,1.40
2017-12-11T18:22:46.545Z,1.63
2017-12-11T18:25:14.831Z,1.10
2017-12-11T18:27:43.109Z,2.60
2017-12-11T18:30:11.466Z,4.50
2017-12-11T18:32:40.782Z,5.63
2017-12-11T18:35:09.607Z,3.20
2017-12-11T18:37:37.890Z,2.00
2017-12-11T18:40:05.426Z,1.50
2017-12-11T18:42:33.333Z,2.30
2017-12-11T18:45:02.448Z,2.13
2017-12-11T18:47:29.971Z,2.03
2017-12-11T18:49:58.271Z,2.43
2017-12-11T18:52:26.564Z,1.30
2017-12-11T18:54:54.870Z,1.80
2017-12-11T18:57:23.154Z,1.20
2017-12-11T18:59:51.487Z,1.00
2017-12-11T19:02:19.000Z,1.20
2017-12-11T19:04:46.959Z,1.10
2017-12-11T19:07:15.290Z,1.40
2017-12-11T19:09:43.604Z,1.53
2017-12-11T19:12:11.931Z,1.60
2017-12-11T19:14:40.231Z,1.27
2017-12-11T19:17:07.755Z,1.70
2017-12-11T19:19:35.727Z,1.70
2017-12-11T19:22:04.008Z,1.40
2017-12-11T19:24:32.317Z,1.07
2017-12-11T19:27:00.607Z,1.00
2017-12-11T19:29:28.901Z,1.17
2017-12-11T19:31:56.419Z,1.03
2017-12-11T19:34:24.354Z,1.00
2017-12-11T19:36:52.630Z,0.80
2017-12-11T19:39:20.920Z,1.00
2017-12-11T19:41:49.230Z,1.20
2017-12-11T19:44:16.807Z,1.20
2017-12-11T19:46:44.709Z,0.90
2017-12-11T19:49:13.298Z,1.13
2017-12-11T19:51:41.612Z,1.37
2017-12-11T19:54:09.906Z,1.33
2017-12-11T19:56:38.198Z,1.13
2017-12-11T19:59:06.498Z,2.80
2017-12-11T20:01:34.795Z,1.17
2017-12-11T20:04:03.117Z,1.30
2017-12-11T20:06:31.428Z,0.80
2017-12-11T20:08:59.805Z,1.43
2017-12-11T20:11:28.118Z,1.60
2017-12-11T20:57:36.923Z,1.30
2017-12-11T21:00:05.218Z,1.67
2017-12-11T21:02:33.596Z,1.20
2017-12-11T21:05:01.890Z,1.00
2017-12-11T21:07:30.251Z,1.10
2017-12-11T21:09:58.540Z,1.37
2017-12-11T21:12:26.835Z,1.83
2017-12-11T21:14:56.034Z,1.00
2017-12-11T21:17:23.565Z,1.30
2017-12-11T21:19:51.862Z,1.10
2017-12-11T21:22:20.169Z,1.17
2017-12-11T21:24:48.524Z,1.30
2017-12-11T21:27:16.877Z,0.90
2017-12-11T21:29:45.167Z,1.03
2017-12-11T21:32:13.472Z,1.37
2017-12-11T21:34:41.126Z,1.10
2017-12-11T21:37:09.410Z,1.20
2017-12-11T21:39:38.203Z,1.30
2017-12-11T21:42:05.747Z,1.20
2017-12-11T21:44:34.285Z,0.90
2017-12-11T21:47:02.218Z,1.10
2017-12-11T21:49:30.508Z,0.90
2017-12-11T21:51:58.792Z,0.90
2017-12-11T21:54:28.210Z,0.90
2017-12-11T21:56:55.755Z,0.90
2017-12-11T21:59:24.054Z,0.80
2017-12-11T22:01:52.559Z,1.00
2017-12-11T22:04:20.499Z,1.00
2017-12-11T22:06:48.005Z,1.00
2017-12-11T22:09:15.937Z,1.00
2017-12-11T22:11:44.218Z,0.80
2017-12-11T22:14:12.594Z,0.90
2017-12-11T22:16:40.873Z,0.80
2017-12-11T22:19:09.238Z,0.80
2017-12-11T22:21:37.510Z,0.70
2017-12-11T22:24:05.046Z,0.70
2017-12-11T22:26:33.587Z,0.80
2017-12-11T22:29:01.131Z,0.90
2017-12-11T22:31:29.859Z,0.97
2017-12-11T22:33:58.043Z,0.70
2017-12-11T22:36:26.323Z,0.80
2017-12-11T22:38:54.634Z,0.70
2017-12-11T22:41:22.920Z,0.67
2017-12-11T22:43:51.226Z,0.70
2017-12-11T22:46:18.757Z,0.60
2017-12-11T22:48:46.694Z,0.60
2017-12-11T22:51:14.977Z,0.60
2017-12-11T22:53:43.635Z,0.70
2017-12-11T22:56:11.542Z,0.70
2017-12-11T22:58:39.953Z,0.70
2017-12-11T23:01:08.238Z,0.70
2017-12-11T23:03:36.529Z,0.90
2017-12-11T23:06:05.022Z,0.73
2017-12-11T23:08:33.302Z,0.70
2017-12-11T23:11:02.476Z,0.70
2017-12-11T23:13:30.755Z,0.80
2017-12-11T23:15:58.291Z,0.70
2017-12-11T23:18:26.827Z,0.70
2017-12-11T23:20:55.127Z,0.60
2017-12-11T23:23:23.419Z,0.70
2017-12-11T23:25:51.808Z,0.60
2017-12-11T23:28:20.369Z,0.60
2017-12-11T23:30:48.307Z,0.70
2017-12-11T23:33:15.826Z,0.70
2017-12-11T23:35:43.747Z,0.70
2017-12-11T23:38:12.031Z,0.60
2017-12-11T23:40:40.458Z,0.80
2017-12-11T23:43:08.740Z,0.70
2017-12-11T23:45:37.033Z,0.60
2017-12-11T23:48:05.506Z,0.60
2017-12-11T23:50:33.810Z,0.70
2017-12-11T23:53:02.101Z,0.80
2017-12-11T23:55:30.409Z,0.70
2017-12-11T23:57:58.954Z,0.63
